Terminal Aerodrome Forecast
Issued by NWS Green Bay, WI

Home | Current Version | Previous Version | Text Only | Print | Product List | Glossary Off
Versions: 1 2 3 4 5 6 7 8 9 10 11 12 13 14 15 16 17 18 19 20 21 22 23 24 25 26 27 28 29 30 31 32 33 34 35 36 37 38 39 40 41 42

000
FTUS43 KGRB 232339
TAFGRB
TAF
KGRB 232339Z 2400/2424 04011G17KT P6SM BKN025 BKN060
     FM240600 01007G15KT P6SM BKN021
     FM240800 01007KT P6SM BKN019
     FM241400 03008KT P6SM SCT040 BKN080
     FM241900 04007KT P6SM SCT060
     FM242300 09004KT P6SM SKC=

USA.gov is the U.S. government's official web portal to all federal, state and local government web resources and services.